createdAt,value
2018-07-25T00:00:06.835Z,1002.05
2018-07-25T00:01:21.555Z,1002.03
2018-07-25T00:02:36.211Z,1002.01
2018-07-25T00:03:50.903Z,1002.08
2018-07-25T00:05:05.863Z,1002.06
2018-07-25T00:06:20.555Z,1002.11
2018-07-25T00:07:35.253Z,1002.08
2018-07-25T00:08:49.426Z,1002.08
2018-07-25T00:10:04.158Z,1002.07
2018-07-25T00:11:18.604Z,1002.13
2018-07-25T00:12:33.070Z,1002.08
2018-07-25T00:13:47.730Z,1002.1
2018-07-25T00:15:01.419Z,1002.13
2018-07-25T00:16:16.118Z,1002.15
2018-07-25T00:17:30.548Z,1002.14
2018-07-25T00:18:45.240Z,1002.12
2018-07-25T00:19:59.428Z,1002.13
2018-07-25T00:21:13.631Z,1002.2
2018-07-25T00:22:28.433Z,1002.17
2018-07-25T00:23:42.854Z,1002.17
2018-07-25T00:24:57.866Z,1002.17
2018-07-25T00:26:12.344Z,1002.15
2018-07-25T00:27:27.403Z,1002.15
2018-07-25T00:28:41.337Z,1002.16
2018-07-25T00:29:55.287Z,1002.22
2018-07-25T00:31:09.749Z,1002.17
2018-07-25T00:32:24.240Z,1002.2
2018-07-25T00:33:38.941Z,1002.18
2018-07-25T00:34:53.618Z,1002.19
2018-07-25T00:36:08.535Z,1002.19
2018-07-25T00:37:24.188Z,1002.17
2018-07-25T00:38:38.895Z,1002.18
2018-07-25T00:39:53.555Z,1002.15
2018-07-25T00:41:07.743Z,1002.13
2018-07-25T00:42:22.579Z,1002.15
2018-07-25T00:43:37.256Z,1002.18
2018-07-25T00:44:52.165Z,1002.15
2018-07-25T00:46:06.855Z,1002.16
2018-07-25T00:47:21.224Z,1002.13
2018-07-25T00:48:36.189Z,1002.13
2018-07-25T00:49:50.100Z,1002.12
2018-07-25T00:51:04.770Z,1002.12
2018-07-25T00:52:19.715Z,1002.12
2018-07-25T00:53:34.775Z,1002.14
2018-07-25T00:54:49.215Z,1002.12
2018-07-25T00:56:03.383Z,1002.12
2018-07-25T00:57:18.098Z,1002.14
2018-07-25T00:58:32.272Z,1002.16
2018-07-25T00:59:46.712Z,1002.18
2018-07-25T01:01:01.148Z,1002.15
2018-07-25T01:02:15.582Z,1002.17
2018-07-25T01:03:29.721Z,1002.2
2018-07-25T01:04:44.173Z,1002.2
2018-07-25T01:05:59.103Z,1002.18
2018-07-25T01:07:13.278Z,1002.2
2018-07-25T01:08:27.680Z,1002.21
2018-07-25T01:09:42.419Z,1002.2
2018-07-25T01:10:57.093Z,1002.19
2018-07-25T01:12:11.291Z,1002.18
2018-07-25T01:13:25.453Z,1002.18
2018-07-25T01:14:40.421Z,1002.19
2018-07-25T01:15:54.876Z,1002.16
2018-07-25T01:17:09.070Z,1002.18
2018-07-25T01:18:23.501Z,1002.18
2018-07-25T01:19:38.581Z,1002.2
2018-07-25T01:20:52.807Z,1002.17
2018-07-25T01:22:07.238Z,1002.2
2018-07-25T01:23:21.392Z,1002.17
2018-07-25T01:24:35.810Z,1002.18
2018-07-25T01:25:50.478Z,1002.14
2018-07-25T01:27:05.157Z,1002.13
2018-07-25T01:28:19.824Z,1002.15
2018-07-25T01:29:34.806Z,1002.13
2018-07-25T01:30:49.530Z,1002.14
2018-07-25T01:32:03.964Z,1002.14
2018-07-25T01:33:18.432Z,1002.16
2018-07-25T01:34:33.354Z,1002.15
2018-07-25T01:35:47.801Z,1002.14
2018-07-25T01:37:02.486Z,1002.17
2018-07-25T01:38:16.903Z,1002.18
2018-07-25T01:39:31.527Z,1002.16
2018-07-25T01:40:45.941Z,1002.19
2018-07-25T01:42:00.144Z,1002.17
2018-07-25T01:43:14.545Z,1002.19
2018-07-25T01:44:29.001Z,1002.15
2018-07-25T01:45:43.727Z,1002.15
2018-07-25T01:46:57.883Z,1002.16
2018-07-25T01:48:12.290Z,1002.15
2018-07-25T01:49:26.247Z,1002.15
2018-07-25T01:50:40.244Z,1002.14
2018-07-25T01:51:54.744Z,1002.16
2018-07-25T01:53:09.186Z,1002.17
2018-07-25T01:54:23.626Z,1002.18
2018-07-25T01:55:37.808Z,1002.14
2018-07-25T01:56:52.434Z,1002.19
2018-07-25T01:58:07.106Z,1002.2
2018-07-25T01:59:21.532Z,1002.21
2018-07-25T02:00:36.232Z,1002.27
2018-07-25T02:01:50.655Z,1002.26
2018-07-25T02:03:05.086Z,1002.26
2018-07-25T02:04:19.751Z,1002.26
2018-07-25T02:05:34.326Z,1002.23
2018-07-25T02:06:48.772Z,1002.21
2018-07-25T02:08:03.495Z,1002.25
2018-07-25T02:09:18.949Z,1002.27
2018-07-25T02:10:33.866Z,1002.24
2018-07-25T02:11:48.575Z,1002.28
2018-07-25T02:13:03.015Z,1002.27
2018-07-25T02:14:17.511Z,1002.24
2018-07-25T02:15:31.807Z,1002.3
2018-07-25T02:16:46.502Z,1002.28
2018-07-25T02:18:01.188Z,1002.25
2018-07-25T02:19:15.881Z,1002.3
2018-07-25T02:20:30.894Z,1002.27
2018-07-25T02:21:45.037Z,1002.28
2018-07-25T02:22:59.185Z,1002.31
2018-07-25T02:24:13.373Z,1002.32
2018-07-25T02:25:27.837Z,1002.32
2018-07-25T02:26:42.575Z,1002.3
2018-07-25T02:27:57.547Z,1002.32
2018-07-25T02:29:12.183Z,1002.33
2018-07-25T02:30:26.342Z,1002.32
2018-07-25T02:31:40.545Z,1002.32
2018-07-25T02:32:54.498Z,1002.31
2018-07-25T02:34:08.465Z,1002.37
2018-07-25T02:35:23.439Z,1002.37
2018-07-25T02:36:38.241Z,1002.34
2018-07-25T02:37:52.203Z,1002.37
2018-07-25T02:39:06.908Z,1002.35
2018-07-25T02:40:21.067Z,1002.37
2018-07-25T02:41:35.491Z,1002.41
2018-07-25T02:42:49.698Z,1002.39
2018-07-25T02:44:03.884Z,1002.4
2018-07-25T02:45:18.376Z,1002.42
2018-07-25T02:46:33.231Z,1002.47
2018-07-25T02:47:47.672Z,1002.46
2018-07-25T02:49:02.360Z,1002.45
2018-07-25T02:50:17.346Z,1002.46
2018-07-25T02:51:32.319Z,1002.43
2018-07-25T02:52:46.544Z,1002.45
2018-07-25T02:54:00.727Z,1002.49
2018-07-25T02:55:15.437Z,1002.45
2018-07-25T02:56:30.382Z,1002.5
2018-07-25T02:57:44.928Z,1002.5
2018-07-25T02:58:59.618Z,1002.5
2018-07-25T03:00:14.567Z,1002.52
2018-07-25T03:01:28.745Z,1002.52
2018-07-25T03:02:43.413Z,1002.56
2018-07-25T03:03:57.597Z,1002.55
2018-07-25T03:05:12.270Z,1002.55
2018-07-25T03:06:26.207Z,1002.5
2018-07-25T03:07:40.847Z,1002.56
2018-07-25T03:08:55.374Z,1002.56
2018-07-25T03:10:10.694Z,1002.55
2018-07-25T03:11:25.398Z,1002.57
2018-07-25T03:12:39.891Z,1002.6
2018-07-25T03:13:54.557Z,1002.62
2018-07-25T03:15:09.526Z,1002.65
2018-07-25T03:16:23.984Z,1002.66
2018-07-25T03:17:39.244Z,1002.67
2018-07-25T03:18:54.187Z,1002.66
2018-07-25T03:20:08.898Z,1002.67
2018-07-25T03:21:23.580Z,1002.69
2018-07-25T03:22:37.759Z,1002.72
2018-07-25T03:23:52.078Z,1002.68
2018-07-25T03:25:06.390Z,1002.7
2018-07-25T03:26:20.586Z,1002.7
2018-07-25T03:27:35.088Z,1002.75
2018-07-25T03:28:49.556Z,1002.76
2018-07-25T03:30:03.482Z,1002.78
2018-07-25T03:31:18.256Z,1002.74
2018-07-25T03:32:33.182Z,1002.75
2018-07-25T03:33:48.114Z,1002.76
2018-07-25T03:35:02.281Z,1002.77
2018-07-25T03:36:16.977Z,1002.79
2018-07-25T03:37:30.934Z,1002.78
2018-07-25T03:38:45.752Z,1002.79
2018-07-25T03:40:00.482Z,1002.74
2018-07-25T03:41:15.140Z,1002.79
2018-07-25T03:42:29.542Z,1002.78
2018-07-25T03:43:44.478Z,1002.78
2018-07-25T03:44:58.886Z,1002.82
2018-07-25T03:46:12.820Z,1002.79
2018-07-25T03:47:27.474Z,1002.8
2018-07-25T03:48:42.158Z,1002.8
2018-07-25T03:49:56.830Z,1002.79
2018-07-25T03:51:11.500Z,1002.85
2018-07-25T03:52:25.435Z,1002.83
2018-07-25T03:53:39.919Z,1002.81
2018-07-25T03:54:54.609Z,1002.8
2018-07-25T03:56:08.815Z,1002.84
2018-07-25T03:57:23.015Z,1002.86
2018-07-25T03:58:38.046Z,1002.84
2018-07-25T03:59:52.719Z,1002.85
2018-07-25T04:01:07.124Z,1002.84
2018-07-25T04:02:20.850Z,1002.87
2018-07-25T04:03:35.918Z,1002.86
2018-07-25T04:04:50.219Z,1002.88
2018-07-25T04:06:05.000Z,1002.93
2018-07-25T04:07:19.472Z,1002.91
2018-07-25T04:08:34.161Z,1002.9
2018-07-25T04:09:48.644Z,1002.91
2018-07-25T04:11:03.249Z,1002.96
2018-07-25T04:12:17.643Z,1002.92
2018-07-25T04:13:32.093Z,1002.93
2018-07-25T04:14:46.821Z,1002.97
2018-07-25T04:16:01.485Z,1002.98
2018-07-25T04:17:15.916Z,1002.95
2018-07-25T04:18:30.839Z,1002.97
2018-07-25T04:19:46.043Z,1002.96
2018-07-25T04:21:00.258Z,1002.91
2018-07-25T04:22:14.411Z,1002.95
2018-07-25T04:23:28.855Z,1002.99
2018-07-25T04:24:43.547Z,1002.97
2018-07-25T04:25:58.467Z,1002.93
2018-07-25T04:27:12.931Z,1002.94
2018-07-25T04:28:27.134Z,1003
2018-07-25T04:29:42.029Z,1003.02
2018-07-25T04:30:56.708Z,1003.01
2018-07-25T04:32:11.234Z,1002.98
2018-07-25T04:33:25.685Z,1003.02
2018-07-25T04:34:40.224Z,1003.02
2018-07-25T04:35:54.868Z,1003.01
2018-07-25T04:37:09.337Z,1003.07
2018-07-25T04:38:23.242Z,1003.06
2018-07-25T04:39:37.675Z,1003.07
2018-07-25T04:40:52.214Z,1003.06
2018-07-25T04:42:06.440Z,1003.11
2018-07-25T04:43:21.111Z,1003.12
2018-07-25T04:44:35.812Z,1003.16
2018-07-25T04:45:50.527Z,1003.17
2018-07-25T04:47:04.566Z,1003.19
2018-07-25T04:48:19.477Z,1003.18
2018-07-25T04:49:33.646Z,1003.17
2018-07-25T04:50:48.329Z,1003.16
2018-07-25T04:52:02.740Z,1003.19
2018-07-25T04:53:17.478Z,1003.19
2018-07-25T04:54:32.449Z,1003.21
2018-07-25T04:55:47.371Z,1003.19
2018-07-25T04:57:01.336Z,1003.17
2018-07-25T04:58:15.540Z,1003.21
2018-07-25T04:59:29.962Z,1003.21
2018-07-25T05:00:44.749Z,1003.22
2018-07-25T05:01:59.362Z,1003.25
2018-07-25T05:03:13.808Z,1003.23
2018-07-25T05:04:27.802Z,1003.25
2018-07-25T05:05:42.547Z,1003.25
2018-07-25T05:06:57.225Z,1003.22
2018-07-25T05:08:11.611Z,1003.23
2018-07-25T05:09:25.828Z,1003.32
2018-07-25T05:10:40.236Z,1003.33
2018-07-25T05:11:54.661Z,1003.33
2018-07-25T05:13:09.602Z,1003.36
2018-07-25T05:14:23.789Z,1003.34
2018-07-25T05:15:38.741Z,1003.34
2018-07-25T05:16:52.972Z,1003.35
2018-07-25T05:18:06.923Z,1003.37
2018-07-25T05:19:21.656Z,1003.4
2018-07-25T05:20:35.911Z,1003.37
2018-07-25T05:21:50.407Z,1003.38
2018-07-25T05:23:04.603Z,1003.46
2018-07-25T05:24:19.349Z,1003.45
2018-07-25T05:25:33.752Z,1003.5
2018-07-25T05:26:48.659Z,1003.45
2018-07-25T05:28:02.630Z,1003.48
2018-07-25T05:29:17.142Z,1003.42
2018-07-25T05:30:31.602Z,1003.43
2018-07-25T05:31:46.138Z,1003.45
2018-07-25T05:33:00.336Z,1003.46
2018-07-25T05:34:15.301Z,1003.47
2018-07-25T05:35:29.501Z,1003.48
2018-07-25T05:36:43.712Z,1003.46
2018-07-25T05:37:57.902Z,1003.47
2018-07-25T05:39:12.360Z,1003.48
2018-07-25T05:40:27.281Z,1003.46
2018-07-25T05:41:41.725Z,1003.5
2018-07-25T05:42:56.327Z,1003.48
2018-07-25T05:44:11.014Z,1003.48
2018-07-25T05:45:25.954Z,1003.46
2018-07-25T05:46:40.174Z,1003.51
2018-07-25T05:47:54.343Z,1003.5
2018-07-25T05:49:09.053Z,1003.48
2018-07-25T05:50:23.647Z,1003.53
2018-07-25T05:51:38.091Z,1003.53
2018-07-25T05:52:52.872Z,1003.53
2018-07-25T05:54:07.995Z,1003.53
2018-07-25T05:55:22.173Z,1003.57
2018-07-25T05:56:37.115Z,1003.59
2018-07-25T05:57:52.479Z,1003.61
2018-07-25T05:59:06.921Z,1003.65
2018-07-25T06:00:21.111Z,1003.69
2018-07-25T06:01:35.580Z,1003.7
2018-07-25T06:12:22.439Z,1003.76
2018-07-25T06:13:36.916Z,1003.74
2018-07-25T06:14:51.160Z,1003.74
2018-07-25T06:16:05.351Z,1003.74
2018-07-25T06:17:19.893Z,1003.77
2018-07-25T06:18:34.338Z,1003.74
2018-07-25T06:19:48.867Z,1003.75
2018-07-25T06:21:03.343Z,1003.8
2018-07-25T06:22:17.814Z,1003.79
2018-07-25T06:23:32.154Z,1003.75
2018-07-25T06:24:46.835Z,1003.73
2018-07-25T06:26:01.250Z,1003.75
2018-07-25T06:27:15.795Z,1003.74
2018-07-25T06:28:30.258Z,1003.76
2018-07-25T06:29:44.720Z,1003.74
2018-07-25T06:30:58.915Z,1003.74
2018-07-25T06:32:13.728Z,1003.73
2018-07-25T06:33:28.464Z,1003.73
2018-07-25T06:34:42.903Z,1003.68
2018-07-25T06:35:57.608Z,1003.7
2018-07-25T06:37:11.787Z,1003.69
2018-07-25T06:38:26.229Z,1003.67
2018-07-25T06:39:40.898Z,1003.7
2018-07-25T06:40:55.362Z,1003.7
2018-07-25T06:42:09.603Z,1003.73
2018-07-25T06:43:24.936Z,1003.74
2018-07-25T06:44:39.293Z,1003.76
2018-07-25T06:45:53.213Z,1003.79
2018-07-25T06:47:07.640Z,1003.77
2018-07-25T06:48:22.425Z,1003.75
2018-07-25T06:49:37.136Z,1003.81
2018-07-25T06:50:51.623Z,1003.79
2018-07-25T06:52:06.166Z,1003.79
2018-07-25T06:53:19.875Z,1003.83
2018-07-25T06:54:34.373Z,1003.84
2018-07-25T06:55:48.836Z,1003.88
2018-07-25T06:57:03.279Z,1003.87
2018-07-25T06:58:17.638Z,1003.89
2018-07-25T06:59:32.436Z,1003.91
2018-07-25T07:00:46.889Z,1003.94
2018-07-25T07:02:01.103Z,1003.91
2018-07-25T07:03:15.824Z,1003.94
2018-07-25T07:04:30.549Z,1003.98
2018-07-25T07:05:45.016Z,1003.95
2018-07-25T07:07:12.196Z,1003.96
2018-07-25T07:08:27.157Z,1003.94
2018-07-25T07:09:41.902Z,1003.95
2018-07-25T07:10:56.093Z,1003.98
2018-07-25T07:12:10.657Z,1003.96
2018-07-25T07:13:24.865Z,1004.01
2018-07-25T07:14:39.104Z,1003.98
2018-07-25T07:15:54.196Z,1003.94
2018-07-25T07:17:08.908Z,1003.93
2018-07-25T07:18:23.422Z,1003.99
2018-07-25T07:19:38.157Z,1003.98
2018-07-25T07:20:52.343Z,1003.97
2018-07-25T07:22:07.068Z,1003.97
2018-07-25T07:23:21.496Z,1003.97
2018-07-25T07:24:36.457Z,1003.98
2018-07-25T07:25:50.984Z,1003.99
2018-07-25T07:27:05.819Z,1003.99
2018-07-25T07:28:20.810Z,1004.02
2018-07-25T07:29:35.182Z,1004.02
2018-07-25T07:30:50.127Z,1003.97
2018-07-25T07:32:04.319Z,1003.96
2018-07-25T07:33:18.804Z,1003.98
2018-07-25T07:34:33.834Z,1003.94
2018-07-25T07:35:47.568Z,1003.95
2018-07-25T07:37:02.284Z,1003.97
2018-07-25T07:38:17.424Z,1003.96
2018-07-25T07:39:32.077Z,1003.95
2018-07-25T07:40:46.751Z,1003.93
2018-07-25T07:42:00.956Z,1003.93
2018-07-25T07:43:15.511Z,1003.93
2018-07-25T07:44:29.677Z,1003.92
2018-07-25T07:45:43.947Z,1003.95
2018-07-25T07:46:58.429Z,1003.97
2018-07-25T07:48:13.129Z,1003.96
2018-07-25T07:49:27.582Z,1003.98
2018-07-25T07:50:42.235Z,1003.95
2018-07-25T07:51:56.714Z,1003.98
2018-07-25T07:53:11.715Z,1003.97
2018-07-25T07:54:25.736Z,1003.95
2018-07-25T07:55:40.247Z,1003.95
2018-07-25T07:56:55.184Z,1003.94
2018-07-25T07:58:09.164Z,1003.96
2018-07-25T07:59:23.407Z,1003.97
2018-07-25T08:00:37.628Z,1003.97
2018-07-25T08:01:52.123Z,1003.96
2018-07-25T08:03:07.184Z,1003.98
2018-07-25T08:04:22.219Z,1003.99
2018-07-25T08:05:37.059Z,1003.93
2018-07-25T08:06:50.971Z,1003.95
2018-07-25T08:08:05.432Z,1003.93
2018-07-25T08:09:19.606Z,1003.96
2018-07-25T08:10:34.221Z,1003.94
2018-07-25T08:11:49.298Z,1003.94
2018-07-25T08:13:03.737Z,1003.92
2018-07-25T08:14:17.985Z,1003.95
2018-07-25T08:15:32.462Z,1003.93
2018-07-25T08:16:47.206Z,1003.95
2018-07-25T08:18:01.979Z,1003.96
2018-07-25T08:19:16.501Z,1003.95
2018-07-25T08:20:30.517Z,1003.96
2018-07-25T08:21:45.015Z,1003.96
2018-07-25T08:22:59.464Z,1003.94
2018-07-25T08:24:14.470Z,1003.95
2018-07-25T08:25:28.939Z,1003.94
2018-07-25T08:26:43.984Z,1004
2018-07-25T08:27:58.699Z,1003.99
2018-07-25T08:29:13.199Z,1004
2018-07-25T08:30:28.145Z,1003.99
2018-07-25T08:31:43.014Z,1003.98
2018-07-25T08:32:57.219Z,1003.97
2018-07-25T08:34:11.933Z,1003.98
2018-07-25T08:35:27.035Z,1003.96
2018-07-25T08:36:41.113Z,1003.97
2018-07-25T08:37:55.861Z,1003.94
2018-07-25T08:39:10.316Z,1003.89
2018-07-25T08:40:25.290Z,1003.92
2018-07-25T08:41:39.528Z,1003.91
2018-07-25T08:42:54.050Z,1003.9
2018-07-25T08:44:08.527Z,1003.89
2018-07-25T08:45:22.692Z,1003.89
2018-07-25T08:46:37.505Z,1003.89
2018-07-25T08:47:52.352Z,1003.9
2018-07-25T08:49:06.793Z,1003.86
2018-07-25T08:50:21.770Z,1003.84
2018-07-25T08:51:36.460Z,1003.86
2018-07-25T08:52:50.854Z,1003.84
2018-07-25T08:54:05.727Z,1003.85
2018-07-25T08:55:20.451Z,1003.86
2018-07-25T08:56:34.405Z,1003.87
2018-07-25T08:57:49.324Z,1003.82
2018-07-25T08:59:03.776Z,1003.86
2018-07-25T09:00:18.007Z,1003.84
2018-07-25T09:01:32.550Z,1003.84
2018-07-25T09:02:47.402Z,1003.85
2018-07-25T09:04:02.186Z,1003.84
2018-07-25T09:05:17.156Z,1003.81
2018-07-25T09:06:31.902Z,1003.82
2018-07-25T09:07:47.006Z,1003.82
2018-07-25T09:09:01.716Z,1003.78
2018-07-25T09:10:16.741Z,1003.8
2018-07-25T09:11:31.489Z,1003.78
2018-07-25T09:12:45.830Z,1003.77
2018-07-25T09:14:01.008Z,1003.77
2018-07-25T09:15:16.002Z,1003.78
2018-07-25T09:16:30.731Z,1003.76
2018-07-25T09:17:45.323Z,1003.75
2018-07-25T09:19:00.093Z,1003.76
2018-07-25T09:20:14.489Z,1003.78
2018-07-25T09:21:29.041Z,1003.75
2018-07-25T09:22:44.258Z,1003.78
2018-07-25T09:23:58.747Z,1003.8
2018-07-25T09:25:13.037Z,1003.77
2018-07-25T09:26:28.111Z,1003.79
2018-07-25T09:27:42.891Z,1003.74
2018-07-25T09:28:57.425Z,1003.79
2018-07-25T09:30:12.464Z,1003.75
2018-07-25T09:31:27.018Z,1003.78
2018-07-25T09:32:41.876Z,1003.77
2018-07-25T09:33:58.465Z,1003.75
2018-07-25T09:35:13.511Z,1003.75
2018-07-25T09:36:28.075Z,1003.73
2018-07-25T09:37:42.600Z,1003.74
2018-07-25T09:38:56.888Z,1003.72
2018-07-25T09:40:11.251Z,1003.75
2018-07-25T09:41:25.549Z,1003.72
2018-07-25T09:42:40.539Z,1003.72
2018-07-25T09:43:55.604Z,1003.71
2018-07-25T09:45:09.909Z,1003.77
2018-07-25T09:46:24.312Z,1003.7
2018-07-25T09:47:39.921Z,1003.69
2018-07-25T09:48:54.888Z,1003.72
2018-07-25T09:50:11.102Z,1003.69
2018-07-25T09:51:27.950Z,1003.67
2018-07-25T09:52:43.124Z,1003.64
2018-07-25T09:53:57.932Z,1003.66
2018-07-25T09:55:12.680Z,1003.69
2018-07-25T09:56:26.902Z,1003.6
2018-07-25T09:57:41.731Z,1003.6
2018-07-25T09:58:56.596Z,1003.6
2018-07-25T10:00:10.535Z,1003.58
2018-07-25T10:01:25.291Z,1003.56
2018-07-25T10:02:39.796Z,1003.57
2018-07-25T10:03:55.469Z,1003.53
2018-07-25T10:05:10.751Z,1003.54
2018-07-25T10:06:25.860Z,1003.52
2018-07-25T10:07:40.782Z,1003.56
2018-07-25T10:08:55.345Z,1003.51
2018-07-25T10:10:10.539Z,1003.53
2018-07-25T10:11:25.123Z,1003.49
2018-07-25T10:12:40.192Z,1003.44
2018-07-25T10:13:55.422Z,1003.44
2018-07-25T10:15:09.977Z,1003.42
2018-07-25T10:16:24.621Z,1003.43
2018-07-25T10:17:38.902Z,1003.41
2018-07-25T10:18:53.462Z,1003.39
2018-07-25T10:20:10.159Z,1003.36
2018-07-25T10:21:26.706Z,1003.37
2018-07-25T10:22:42.137Z,1003.34
2018-07-25T10:23:56.753Z,1003.31
2018-07-25T10:25:11.342Z,1003.3
2018-07-25T10:26:25.103Z,1003.29
2018-07-25T10:27:39.967Z,1003.3
2018-07-25T10:28:54.609Z,1003.3
2018-07-25T10:30:09.547Z,1003.27
2018-07-25T10:31:24.151Z,1003.23
2018-07-25T10:32:37.945Z,1003.22
2018-07-25T10:35:23.025Z,1003.23
2018-07-25T10:36:37.964Z,1003.2
2018-07-25T10:37:52.891Z,1003.24
2018-07-25T10:39:07.696Z,1003.25
